createdAt,value
2022-12-03T00:01:47.220Z,14.45
2022-12-03T00:04:15.835Z,15.57
2022-12-03T00:06:44.355Z,17.02
2022-12-03T00:09:12.868Z,12.77
2022-12-03T00:11:41.684Z,16.67
2022-12-03T00:14:11.291Z,15.52
2022-12-03T00:16:39.842Z,14.93
2022-12-03T00:19:08.300Z,14.05
2022-12-03T00:21:36.887Z,18.00
2022-12-03T00:24:05.508Z,13.73
2022-12-03T00:26:34.095Z,14.60
2022-12-03T00:29:02.594Z,18.13
2022-12-03T00:31:32.244Z,16.48
2022-12-03T00:34:00.565Z,12.75
2022-12-03T00:36:29.085Z,14.55
2022-12-03T00:38:57.568Z,11.98
2022-12-03T00:41:26.079Z,15.32
2022-12-03T00:43:57.469Z,16.10
2022-12-03T00:46:26.375Z,21.50
2022-12-03T00:48:56.311Z,17.08
2022-12-03T00:51:24.616Z,18.00
2022-12-03T00:53:53.182Z,14.15
2022-12-03T00:56:21.708Z,14.70
2022-12-03T00:58:51.619Z,14.85
2022-12-03T01:01:20.311Z,14.05
2022-12-03T01:03:48.843Z,17.98
2022-12-03T01:06:18.733Z,18.25
2022-12-03T01:08:47.288Z,16.58
2022-12-03T01:11:29.705Z,18.60
2022-12-03T01:13:58.358Z,21.33
2022-12-03T01:16:26.895Z,15.80
2022-12-03T01:18:55.457Z,18.48
2022-12-03T01:21:25.096Z,17.05
2022-12-03T01:23:53.710Z,21.70
2022-12-03T01:26:22.411Z,17.42
2022-12-03T01:28:50.991Z,16.85
2022-12-03T01:31:37.095Z,19.63
2022-12-03T01:34:05.819Z,20.42
2022-12-03T01:36:35.422Z,20.30
2022-12-03T01:39:04.848Z,19.77
2022-12-03T01:41:34.526Z,18.50
2022-12-03T01:44:04.081Z,24.88
2022-12-03T01:46:39.663Z,17.73
2022-12-03T01:49:14.835Z,27.30
2022-12-03T01:51:44.692Z,26.27
2022-12-03T01:54:19.154Z,22.38
2022-12-03T01:56:48.396Z,18.20
2022-12-03T01:59:20.052Z,20.48
2022-12-03T02:01:48.681Z,23.33
2022-12-03T02:04:20.688Z,28.83
2022-12-03T02:06:50.451Z,29.65
2022-12-03T02:09:19.911Z,22.05
2022-12-03T02:11:51.532Z,20.75
2022-12-03T02:14:22.676Z,26.00
2022-12-03T02:16:51.015Z,22.83
2022-12-03T02:19:27.634Z,24.50
2022-12-03T02:22:06.619Z,18.70
2022-12-03T02:24:44.690Z,23.40
2022-12-03T02:27:14.362Z,21.80
2022-12-03T02:29:42.599Z,22.75
2022-12-03T02:32:11.075Z,23.80
2022-12-03T02:34:42.867Z,26.75
2022-12-03T02:37:16.276Z,23.92
2022-12-03T02:39:51.277Z,27.00
2022-12-03T02:42:37.134Z,26.13
2022-12-03T02:45:11.895Z,20.55
2022-12-03T02:47:43.983Z,25.15
2022-12-03T02:50:16.102Z,21.27
2022-12-03T02:52:47.462Z,19.80
2022-12-03T02:55:18.188Z,24.10
2022-12-03T02:57:51.201Z,24.02
2022-12-03T03:00:20.863Z,23.45
2022-12-03T03:02:50.606Z,23.08
2022-12-03T03:05:22.987Z,30.35
2022-12-03T03:07:52.702Z,24.30
2022-12-03T03:10:24.279Z,28.60
2022-12-03T03:12:56.468Z,25.85
2022-12-03T03:15:25.457Z,27.95
2022-12-03T03:17:54.091Z,24.00
2022-12-03T03:20:22.684Z,27.77
2022-12-03T03:22:51.210Z,31.48
2022-12-03T03:25:22.423Z,28.83
2022-12-03T03:27:51.195Z,25.83
2022-12-03T03:30:20.924Z,27.58
2022-12-03T03:32:49.521Z,24.77
2022-12-03T03:35:18.090Z,38.90
2022-12-03T03:37:46.825Z,28.92
2022-12-03T03:40:15.489Z,31.73
2022-12-03T03:42:44.342Z,26.85
2022-12-03T03:45:12.807Z,30.08
2022-12-03T03:47:43.538Z,26.25
2022-12-03T03:50:13.877Z,26.50
2022-12-03T03:52:43.082Z,27.25
2022-12-03T03:55:12.675Z,29.27
2022-12-03T03:57:41.433Z,29.80
2022-12-03T04:00:11.330Z,32.67
2022-12-03T04:02:39.911Z,27.50
2022-12-03T04:05:16.903Z,25.63
2022-12-03T04:07:45.395Z,31.17
2022-12-03T04:10:33.291Z,28.38
2022-12-03T04:13:02.077Z,29.05
2022-12-03T04:15:30.735Z,29.77
2022-12-03T04:18:16.945Z,28.98
2022-12-03T04:20:46.576Z,24.48
2022-12-03T04:23:14.166Z,27.52
2022-12-03T04:26:02.367Z,24.70
2022-12-03T04:28:48.814Z,27.30
2022-12-03T04:31:31.263Z,25.95
2022-12-03T04:34:17.438Z,27.63
2022-12-03T04:36:47.692Z,28.30
2022-12-03T04:39:16.229Z,27.85
2022-12-03T04:41:44.747Z,23.33
2022-12-03T04:44:30.545Z,28.70
2022-12-03T04:46:58.850Z,27.45
2022-12-03T04:49:27.461Z,29.25
2022-12-03T04:51:57.279Z,26.52
2022-12-03T04:54:25.838Z,34.60
2022-12-03T04:56:54.358Z,27.83
2022-12-03T04:59:23.018Z,32.65
2022-12-03T05:01:51.721Z,29.63
2022-12-03T05:04:20.345Z,26.35
2022-12-03T05:06:48.735Z,29.48
2022-12-03T05:09:18.310Z,27.55
2022-12-03T05:11:47.162Z,31.60
2022-12-03T05:14:15.675Z,24.75
2022-12-03T05:16:44.190Z,24.08
2022-12-03T05:19:12.703Z,32.72
2022-12-03T05:21:40.314Z,31.08
2022-12-03T05:24:09.226Z,24.42
2022-12-03T05:26:38.846Z,28.70
2022-12-03T05:29:07.370Z,34.00
2022-12-03T05:31:36.826Z,27.35
2022-12-03T05:34:05.914Z,28.08
2022-12-03T05:36:34.457Z,32.28
2022-12-03T05:39:02.955Z,31.67
2022-12-03T05:41:48.857Z,26.35
2022-12-03T05:44:20.703Z,32.75
2022-12-03T05:46:49.493Z,27.90
2022-12-03T05:49:17.972Z,27.05
2022-12-03T05:51:46.507Z,33.47
2022-12-03T05:54:15.015Z,29.00
2022-12-03T05:56:58.761Z,29.88
2022-12-03T05:59:28.474Z,32.97
2022-12-03T06:01:57.009Z,28.92
2022-12-03T06:04:25.587Z,27.02
2022-12-03T06:06:53.836Z,30.30
2022-12-03T06:09:22.383Z,34.83
2022-12-03T06:11:54.000Z,34.53
2022-12-03T06:14:22.398Z,38.25
2022-12-03T06:16:52.003Z,30.95
2022-12-03T06:19:20.535Z,35.70
2022-12-03T06:21:49.014Z,34.53
2022-12-03T06:24:17.573Z,28.85
2022-12-03T06:26:46.191Z,39.08
2022-12-03T06:29:14.424Z,39.97
2022-12-03T06:31:43.032Z,28.42
2022-12-03T06:34:12.760Z,38.78
2022-12-03T06:36:41.225Z,34.60
2022-12-03T06:39:09.822Z,27.52
2022-12-03T06:41:38.372Z,24.05
2022-12-03T06:44:07.152Z,36.28
2022-12-03T06:46:36.149Z,34.00
2022-12-03T06:49:04.846Z,36.13
2022-12-03T06:51:34.431Z,29.48
2022-12-03T06:54:03.470Z,26.25
2022-12-03T06:56:36.831Z,31.55
2022-12-03T07:01:34.736Z,26.75
2022-12-03T07:04:03.448Z,34.20
2022-12-03T07:06:31.655Z,36.28
2022-12-03T07:09:01.310Z,30.95
2022-12-03T07:11:32.922Z,23.25
2022-12-03T07:14:05.660Z,25.13
2022-12-03T07:16:34.947Z,30.33
2022-12-03T07:19:03.872Z,30.40
2022-12-03T07:21:32.457Z,27.20
2022-12-03T07:24:02.218Z,28.35
2022-12-03T07:26:30.944Z,25.73
2022-12-03T07:29:00.035Z,26.83
2022-12-03T07:31:28.778Z,28.20
2022-12-03T07:33:57.587Z,22.23
2022-12-03T07:36:26.089Z,27.42
2022-12-03T07:38:54.603Z,32.50
2022-12-03T07:41:24.487Z,27.65
2022-12-03T07:43:53.651Z,22.75
2022-12-03T07:46:22.353Z,26.98
2022-12-03T07:48:51.360Z,24.65
2022-12-03T07:51:19.915Z,28.23
2022-12-03T07:53:48.108Z,25.40
2022-12-03T07:56:16.639Z,28.55
2022-12-03T07:58:46.214Z,20.85
2022-12-03T08:01:14.755Z,26.27
2022-12-03T08:03:43.875Z,22.77
2022-12-03T08:06:12.538Z,23.77
2022-12-03T08:08:41.195Z,24.10
2022-12-03T08:11:14.720Z,29.08
2022-12-03T08:13:43.325Z,26.48
2022-12-03T08:16:18.533Z,25.60
2022-12-03T08:18:48.343Z,24.45
2022-12-03T08:21:19.496Z,26.95
2022-12-03T08:23:48.240Z,34.92
2022-12-03T08:26:23.573Z,34.08
2022-12-03T08:28:52.399Z,27.67
2022-12-03T08:31:32.372Z,21.67
2022-12-03T08:34:17.694Z,21.45
2022-12-03T08:36:46.772Z,24.92
2022-12-03T08:39:30.577Z,25.80
2022-12-03T08:42:28.208Z,26.70
2022-12-03T08:44:56.818Z,24.65
2022-12-03T08:47:26.824Z,25.38
2022-12-03T08:49:59.862Z,20.83
2022-12-03T08:52:33.626Z,21.60
2022-12-03T08:55:21.213Z,23.23
2022-12-03T08:57:49.562Z,24.52
2022-12-03T09:00:23.992Z,27.13
2022-12-03T09:03:00.501Z,25.80
2022-12-03T09:05:32.617Z,25.67
2022-12-03T09:08:01.695Z,25.70
2022-12-03T09:10:30.399Z,24.67
2022-12-03T09:12:59.065Z,24.00
2022-12-03T09:15:28.302Z,24.90
2022-12-03T09:17:57.959Z,25.67
2022-12-03T09:20:26.491Z,25.52
2022-12-03T09:22:55.056Z,23.23
2022-12-03T09:25:23.641Z,28.55
2022-12-03T09:27:52.200Z,25.95
2022-12-03T09:30:20.800Z,24.38
2022-12-03T09:32:49.425Z,28.67
2022-12-03T09:35:19.284Z,26.65
2022-12-03T09:37:47.855Z,20.98
2022-12-03T09:40:16.731Z,27.33
2022-12-03T09:42:45.801Z,24.10
2022-12-03T09:45:16.252Z,23.73
2022-12-03T09:47:48.682Z,26.30
2022-12-03T09:50:23.671Z,22.70
2022-12-03T09:52:54.838Z,26.80
2022-12-03T09:55:26.875Z,19.42
2022-12-03T09:57:56.792Z,24.90
2022-12-03T10:00:28.212Z,23.65
2022-12-03T10:03:02.433Z,21.42
2022-12-03T10:05:33.160Z,25.17
2022-12-03T10:08:07.824Z,21.10
2022-12-03T10:13:05.776Z,24.42
2022-12-03T10:15:34.740Z,26.30
2022-12-03T10:18:16.812Z,25.45
2022-12-03T10:20:47.004Z,26.50
2022-12-03T10:23:23.191Z,24.05
2022-12-03T10:25:56.914Z,28.10
2022-12-03T10:28:32.668Z,27.13
2022-12-03T10:31:03.106Z,23.48
2022-12-03T10:33:36.855Z,28.10
2022-12-03T10:36:23.258Z,25.73
2022-12-03T10:39:10.459Z,27.80
2022-12-03T10:41:39.621Z,28.52
2022-12-03T10:44:19.256Z,31.95
2022-12-03T10:47:07.553Z,23.35
2022-12-03T10:49:36.307Z,25.40
2022-12-03T10:52:07.270Z,29.95
2022-12-03T10:54:36.775Z,29.50
2022-12-03T10:57:05.437Z,25.88
2022-12-03T10:59:35.952Z,32.17
2022-12-03T11:02:08.959Z,32.08
2022-12-03T11:04:38.048Z,25.80
2022-12-03T11:07:16.057Z,33.15
2022-12-03T11:09:46.989Z,32.22
2022-12-03T11:12:21.963Z,33.05
2022-12-03T11:15:08.187Z,33.47
2022-12-03T11:17:49.874Z,26.98
2022-12-03T11:21:08.175Z,31.83
2022-12-03T11:24:21.774Z,32.13
2022-12-03T11:27:22.915Z,33.20
2022-12-03T11:29:58.562Z,34.85
2022-12-03T11:33:21.591Z,30.77
2022-12-03T11:36:31.619Z,30.67
2022-12-03T11:39:05.327Z,30.67
2022-12-03T11:41:36.374Z,28.35
2022-12-03T11:44:33.651Z,26.05
2022-12-03T11:47:14.892Z,25.60
2022-12-03T11:49:49.014Z,23.63
2022-12-03T11:52:29.441Z,31.13
2022-12-03T11:55:14.248Z,32.80
2022-12-03T11:57:44.328Z,24.55
2022-12-03T12:00:21.773Z,28.90
2022-12-03T12:02:51.218Z,34.20
2022-12-03T12:05:29.852Z,29.13
2022-12-03T12:07:58.688Z,26.77
2022-12-03T12:10:42.052Z,26.63
2022-12-03T12:13:56.695Z,29.38
2022-12-03T12:16:50.503Z,25.33
2022-12-03T12:19:39.826Z,31.33
2022-12-03T12:22:31.199Z,33.20
2022-12-03T12:25:01.333Z,27.48
2022-12-03T12:27:37.411Z,29.88
2022-12-03T12:30:13.731Z,32.00
2022-12-03T12:32:47.772Z,31.98
2022-12-03T12:35:20.850Z,31.63
2022-12-03T12:37:58.912Z,28.27
2022-12-03T12:40:30.906Z,28.00
2022-12-03T12:43:06.833Z,32.97
2022-12-03T12:45:43.552Z,28.60
2022-12-03T12:48:22.066Z,30.08
2022-12-03T12:51:00.536Z,35.28
2022-12-03T12:53:32.568Z,27.42
2022-12-03T12:56:02.955Z,28.88
2022-12-03T12:58:34.150Z,35.40
2022-12-03T13:01:12.077Z,33.08
2022-12-03T13:03:41.183Z,29.83
2022-12-03T13:06:15.463Z,29.70
2022-12-03T13:08:48.155Z,35.88
2022-12-03T13:11:35.309Z,34.28
2022-12-03T13:14:13.613Z,29.40
2022-12-03T13:16:43.479Z,33.88
2022-12-03T13:19:23.532Z,34.25
2022-12-03T13:21:53.493Z,32.90
2022-12-03T13:24:35.101Z,40.88
2022-12-03T13:27:22.869Z,36.40
2022-12-03T13:29:56.263Z,27.67
2022-12-03T13:32:32.466Z,32.35
2022-12-03T13:35:05.707Z,25.67
2022-12-03T13:37:34.583Z,29.23
2022-12-03T13:40:27.895Z,23.77
2022-12-03T13:42:55.272Z,26.70
2022-12-03T13:45:36.059Z,31.67
2022-12-03T13:48:19.714Z,28.60
2022-12-03T13:50:48.299Z,29.30
2022-12-03T13:53:22.882Z,35.80
2022-12-03T13:58:21.395Z,28.38
2022-12-03T14:00:50.037Z,32.28
2022-12-03T14:03:19.871Z,33.17
2022-12-03T14:05:48.436Z,32.55
2022-12-03T14:08:17.137Z,28.88
2022-12-03T14:10:45.471Z,33.80
2022-12-03T14:13:13.957Z,34.13
2022-12-03T14:15:42.217Z,35.28
2022-12-03T14:18:11.651Z,37.60
2022-12-03T14:20:41.221Z,38.10
2022-12-03T14:23:09.719Z,36.58
2022-12-03T14:25:38.228Z,31.67
2022-12-03T14:28:08.588Z,33.42
2022-12-03T14:30:37.139Z,33.10
2022-12-03T14:33:05.723Z,32.28
2022-12-03T14:35:34.292Z,40.83
2022-12-03T14:38:03.896Z,37.22
2022-12-03T14:40:32.562Z,32.75
2022-12-03T14:43:01.043Z,32.53
2022-12-03T14:45:29.989Z,38.03
2022-12-03T14:47:58.666Z,32.88
2022-12-03T14:50:27.425Z,32.03
2022-12-03T14:52:56.048Z,38.65
2022-12-03T14:55:25.833Z,40.92
2022-12-03T14:57:54.414Z,35.53
2022-12-03T15:00:23.746Z,53.33
2022-12-03T15:02:52.333Z,39.60
2022-12-03T15:05:27.937Z,37.63
2022-12-03T15:07:57.436Z,33.88
2022-12-03T15:10:27.015Z,42.63
2022-12-03T15:12:55.543Z,32.20
2022-12-03T15:15:24.050Z,33.20
2022-12-03T15:17:52.547Z,35.92
2022-12-03T15:20:21.024Z,31.42
2022-12-03T15:22:49.549Z,29.58
2022-12-03T15:25:24.232Z,30.58
2022-12-03T15:27:53.939Z,30.10
2022-12-03T15:30:22.422Z,31.00
2022-12-03T15:32:50.950Z,33.92
2022-12-03T15:35:19.466Z,31.80
2022-12-03T15:37:48.050Z,35.05
2022-12-03T15:40:16.800Z,29.00
2022-12-03T15:42:45.347Z,25.42
2022-12-03T15:45:15.505Z,30.58
2022-12-03T15:47:44.440Z,27.58
2022-12-03T15:50:14.139Z,31.52
2022-12-03T15:52:42.719Z,32.58
2022-12-03T15:55:11.396Z,29.35
2022-12-03T15:57:40.215Z,30.73
2022-12-03T16:00:12.040Z,37.42
2022-12-03T16:02:52.198Z,34.10
2022-12-03T16:05:21.275Z,31.05
2022-12-03T16:07:50.069Z,36.70
2022-12-03T16:10:21.341Z,32.67
2022-12-03T16:12:50.182Z,36.47
2022-12-03T16:15:22.230Z,26.90
2022-12-03T16:17:56.286Z,33.38
2022-12-03T16:20:24.541Z,33.80
2022-12-03T16:22:53.187Z,32.20
2022-12-03T16:25:21.856Z,37.13
2022-12-03T16:27:50.129Z,31.13
2022-12-03T16:30:18.988Z,29.42
2022-12-03T16:32:47.501Z,32.75
2022-12-03T16:35:17.391Z,34.10
2022-12-03T16:37:45.863Z,45.17
2022-12-03T16:40:14.507Z,34.88
2022-12-03T16:42:43.010Z,32.22
2022-12-03T16:45:33.837Z,30.65
2022-12-03T16:48:02.920Z,35.90
2022-12-03T16:50:32.679Z,39.05
2022-12-03T16:53:01.242Z,32.78
2022-12-03T16:55:29.714Z,31.48
2022-12-03T16:57:58.294Z,34.00
2022-12-03T17:00:26.735Z,29.25
2022-12-03T17:02:55.438Z,31.50
2022-12-03T17:05:24.101Z,30.00
2022-12-03T17:07:53.892Z,41.22
2022-12-03T17:10:22.509Z,29.50
2022-12-03T17:15:40.202Z,35.15
2022-12-03T17:18:09.396Z,34.22
2022-12-03T17:20:37.964Z,28.60
2022-12-03T17:23:07.609Z,34.20
2022-12-03T17:25:35.964Z,31.42
2022-12-03T17:28:04.649Z,37.42
2022-12-03T17:30:33.193Z,34.17
2022-12-03T17:33:01.677Z,36.05
2022-12-03T17:35:30.488Z,38.75
2022-12-03T17:37:59.004Z,37.42
2022-12-03T17:40:28.602Z,32.47
2022-12-03T17:42:57.063Z,33.20
2022-12-03T17:45:27.732Z,35.13
2022-12-03T17:47:56.241Z,30.25
2022-12-03T17:50:26.599Z,39.78
2022-12-03T17:52:55.096Z,35.60
2022-12-03T17:55:32.081Z,36.30
2022-12-03T17:58:06.092Z,33.75
2022-12-03T18:00:34.994Z,36.45
2022-12-03T18:03:03.293Z,33.53
2022-12-03T18:05:31.954Z,34.17
2022-12-03T18:08:00.503Z,41.72
2022-12-03T18:10:29.071Z,35.15
2022-12-03T18:13:01.621Z,36.60
2022-12-03T18:15:33.093Z,35.35
2022-12-03T18:18:02.462Z,33.58
2022-12-03T18:20:31.131Z,32.20
2022-12-03T18:23:00.426Z,38.83
2022-12-03T18:25:29.347Z,44.15
2022-12-03T18:27:57.759Z,34.58
2022-12-03T18:30:26.343Z,34.85
2022-12-03T18:32:56.424Z,28.13
2022-12-03T18:35:24.950Z,32.70
2022-12-03T18:37:53.382Z,34.50
2022-12-03T18:40:26.974Z,29.90
2022-12-03T18:42:56.778Z,27.70
2022-12-03T18:45:25.282Z,33.35
2022-12-03T18:47:54.715Z,37.92
2022-12-03T18:50:24.352Z,29.70
2022-12-03T18:52:52.911Z,32.03
2022-12-03T18:55:22.690Z,36.40
2022-12-03T18:57:51.257Z,32.58
2022-12-03T19:00:20.324Z,31.98
2022-12-03T19:03:04.855Z,34.10
2022-12-03T19:05:36.538Z,32.88
2022-12-03T19:08:12.580Z,33.28
2022-12-03T19:10:41.809Z,29.38
2022-12-03T19:13:10.331Z,32.40
2022-12-03T19:15:39.852Z,34.75
2022-12-03T19:18:08.351Z,32.75
2022-12-03T19:20:41.812Z,31.83
2022-12-03T19:23:10.464Z,30.73
2022-12-03T19:25:38.960Z,33.03
2022-12-03T19:28:07.581Z,31.60
2022-12-03T19:30:36.087Z,27.88
2022-12-03T19:33:04.638Z,30.80
2022-12-03T19:35:33.541Z,37.67
2022-12-03T19:38:03.133Z,31.92
2022-12-03T19:40:32.080Z,31.75
2022-12-03T19:43:00.807Z,35.80
2022-12-03T19:45:29.313Z,26.80
2022-12-03T19:47:57.854Z,36.08
2022-12-03T19:50:26.080Z,35.33
2022-12-03T19:52:54.622Z,32.90
2022-12-03T19:55:24.168Z,29.02
2022-12-03T19:57:52.693Z,32.33
2022-12-03T20:00:21.352Z,27.70
2022-12-03T20:02:50.832Z,30.00
2022-12-03T20:05:19.557Z,30.38
2022-12-03T20:07:48.075Z,32.33
2022-12-03T20:10:16.679Z,44.50
2022-12-03T20:12:46.413Z,34.40
2022-12-03T20:15:15.199Z,45.15
2022-12-03T20:17:43.791Z,49.28
2022-12-03T20:20:12.977Z,33.17
2022-12-03T20:22:41.458Z,33.03
2022-12-03T20:25:10.574Z,36.42
2022-12-03T20:27:39.267Z,34.33
2022-12-03T20:30:11.287Z,36.40
2022-12-03T20:32:45.025Z,34.13
2022-12-03T20:35:13.745Z,33.22
2022-12-03T20:37:42.067Z,26.58
2022-12-03T20:40:11.576Z,29.88
2022-12-03T20:42:40.071Z,38.95
2022-12-03T20:45:11.580Z,29.25
2022-12-03T20:47:40.188Z,34.72
2022-12-03T20:50:09.503Z,25.77
2022-12-03T20:52:38.163Z,30.73
2022-12-03T20:55:07.206Z,28.05
2022-12-03T20:57:36.522Z,33.13
2022-12-03T21:00:06.319Z,22.90
2022-12-03T21:02:35.969Z,36.13
2022-12-03T21:05:04.396Z,33.03
2022-12-03T21:07:33.069Z,28.40
2022-12-03T21:10:01.579Z,24.95
2022-12-03T21:12:30.089Z,23.35
2022-12-03T21:14:58.593Z,30.83
2022-12-03T21:17:27.173Z,18.85
2022-12-03T21:19:57.197Z,25.20
2022-12-03T21:22:26.127Z,23.70
2022-12-03T21:24:54.597Z,20.73
2022-12-03T21:27:23.110Z,22.55
2022-12-03T21:29:51.408Z,20.13
2022-12-03T21:32:20.343Z,21.63
2022-12-03T21:34:48.820Z,19.00
2022-12-03T21:37:18.449Z,24.35
2022-12-03T21:39:46.962Z,22.40
2022-12-03T21:42:34.859Z,26.55
2022-12-03T21:45:04.299Z,22.23
2022-12-03T21:47:37.334Z,23.77
2022-12-03T21:50:08.471Z,19.73
2022-12-03T21:52:38.099Z,23.15
2022-12-03T21:55:07.590Z,20.55
2022-12-03T21:57:37.207Z,15.57
2022-12-03T22:00:08.554Z,21.42
2022-12-03T22:02:40.105Z,16.27
2022-12-03T22:05:09.766Z,19.45
2022-12-03T22:07:41.003Z,18.65
2022-12-03T22:10:12.315Z,18.90
2022-12-03T22:12:41.908Z,17.52
2022-12-03T22:15:18.200Z,17.13
2022-12-03T22:17:49.898Z,19.83
2022-12-03T22:20:18.379Z,15.75
2022-12-03T22:22:48.018Z,17.27
2022-12-03T22:25:17.807Z,12.60
2022-12-03T22:27:46.043Z,15.35
2022-12-03T22:30:14.926Z,15.15
2022-12-03T22:32:43.452Z,16.85
2022-12-03T22:35:11.947Z,15.57
2022-12-03T22:37:40.163Z,19.08
2022-12-03T22:40:10.893Z,10.07
2022-12-03T22:42:39.088Z,12.73
2022-12-03T22:45:08.813Z,15.95
2022-12-03T22:47:37.092Z,13.90
2022-12-03T22:50:06.368Z,12.98
2022-12-03T22:52:34.979Z,11.63
2022-12-03T22:55:03.292Z,17.35
2022-12-03T22:57:33.019Z,8.90
2022-12-03T23:00:01.610Z,11.25
2022-12-03T23:02:29.854Z,13.32
2022-12-03T23:04:58.382Z,11.95
2022-12-03T23:07:26.971Z,12.73
2022-12-03T23:09:55.760Z,14.90
2022-12-03T23:12:24.475Z,12.18
2022-12-03T23:14:55.750Z,9.90
2022-12-03T23:17:24.316Z,11.35
2022-12-03T23:19:53.395Z,11.50
2022-12-03T23:22:22.146Z,11.60
2022-12-03T23:24:50.654Z,11.95
2022-12-03T23:27:19.199Z,13.60
2022-12-03T23:29:47.887Z,11.35
2022-12-03T23:32:17.502Z,13.45
2022-12-03T23:34:46.127Z,11.55
2022-12-03T23:37:14.411Z,12.02
2022-12-03T23:39:42.898Z,12.90
2022-12-03T23:42:11.395Z,15.30
2022-12-03T23:44:39.936Z,10.77
2022-12-03T23:47:08.459Z,11.95
2022-12-03T23:49:38.240Z,9.73
2022-12-03T23:52:06.810Z,10.57
2022-12-03T23:54:35.355Z,13.65
2022-12-03T23:57:03.899Z,11.45
2022-12-03T23:59:32.473Z,14.02
